Lamy, NM (87540)

4:18 AM MDT on March 24, 2017 (GMT -0600)
Spirit Wind Ranch (Lamy NM) | | Change Station
Active Advisory: Fire Weather Warning

Elev 6518 ft 35.48 °N, 105.90 °W | Updated 14 seconds ago

Snow
Snow
36.1 °F
Feels Like 27 °F
N
13.4
Wind Variable Wind from WSW
Gusts 22.4 mph

Today
High -- | Low -- °F
--% Chance of Precip.
Yesterday
High -- | Low -- °F
Precip. -- in
Pressure 29.79 in
Visibility 10.0 miles
Clouds Scattered Clouds 3000 ft
Mostly Cloudy 7500 ft
Overcast 11000 ft
Windchill 27 °F
Dew Point 31 °F
Humidity 80%
Rainfall 0.00 in
Snow Depth Not available.
7:00 AM 7:18 PM
Waning Crescent, 16% visible
METAR K0E0 240955Z AUTO 27015G23KT 10SM SCT030 BKN075 OVC110 04/00 A2979 RMK AO2 T00400000
Pressure 29.79 in
Visibility 10.0 miles
Clouds Scattered Clouds 3000 ft
Mostly Cloudy 7500 ft
Overcast 11000 ft
Windchill 27 °F
Dew Point 31 °F
Humidity 80%
Rainfall 0.00 in
Snow Depth Not available.
7:00 AM 7:18 PM
Waning Crescent, 16% visible
METAR K0E0 240955Z AUTO 27015G23KT 10SM SCT030 BKN075 OVC110 04/00 A2979 RMK AO2 T00400000

Get Your Daily Forecast Email!

Thanks for signing up!

Be on the lookout for a verification email in your inbox.

You'll start receiving severe weather alerts in your inbox..

×

10-Day Weather Forecast

Almanac

Astronomy

Mar. 24, 2017 Rise Set
Actual Time
Civil Twilight
Nautical Twilight
Astronomical Twilight
Moon
Length of Visible Light
Length of Day
Tomorrow will be .
, % of the Moon is Illuminated

Today's Extremes

State Highs State Lows

Community

WunderPhotos

Upload Photos

1,962,540 photos uploaded!

WunderBlog® & News

Nearby

Air Quality

  Air Quality AQ Index Pollutant
Not available.

Snow Depth

Station Depth Elevation

Earthquake Activity

City Distance Mag. Time & Date
Minimum magnitude displayed is 2.5.

Earthquake Activity

City Distance Mag. Time & Date
Minimum magnitude displayed is 2.5.

Coastal Water Temperatures

Place Temperature

Stations

Nearby Weather Stations

Station Location Temp. Windchill Dew Point Humidity Wind Precip. Elev Updated Type
                   

Watches & Warnings

Fire Weather Warning
Issued: 3:54 AM MDT Mar. 24, 2017 – National Weather Service

... Red flag warning in effect from 1 PM this afternoon to 7 PM
MDT this evening...

The National Weather Service in Albuquerque has issued a red flag
warning... which is in effect from 1 PM this afternoon to 7 PM MDT
this evening. The Fire Weather Watch is no longer in effect.

* Area and timing... middle Rio Grande Valley this afternoon and
early evening.

* 20 foot winds... northwest at 20 to 30 mph with occasional
gusts to 45 mph.

* Relative humidity... 12 to 15 percent.

* Impacts... any fires that develop will likely spread rapidly.
Outdoor burning is not recommended.

Precautionary/preparedness actions...

Please advise the appropriate officials or fire crews in the
field of this red flag warning.